sensor_id;sensor_type;location;lat;lon;timestamp;pressure;altitude;pressure_sealevel;temperature;humidity
69535;BME280;56754;51.568;5.048;2022-07-06T00:00:48;102552.44;;;21.29;47.74
69535;BME280;56754;51.568;5.048;2022-07-06T00:03:14;102554.72;;;21.27;47.50
69535;BME280;56754;51.568;5.048;2022-07-06T00:05:39;102556.97;;;21.25;47.64
69535;BME280;56754;51.568;5.048;2022-07-06T00:08:04;102558.44;;;21.23;47.69
69535;BME280;56754;51.568;5.048;2022-07-06T00:10:29;102549.84;;;21.21;47.77
69535;BME280;56754;51.568;5.048;2022-07-06T00:12:55;102546.69;;;21.19;47.96
69535;BME280;56754;51.568;5.048;2022-07-06T00:15:20;102553.59;;;21.16;47.77
69535;BME280;56754;51.568;5.048;2022-07-06T00:17:45;102556.63;;;21.14;47.96
69535;BME280;56754;51.568;5.048;2022-07-06T00:20:11;102551.53;;;21.13;47.93
69535;BME280;56754;51.568;5.048;2022-07-06T00:22:36;102552.69;;;21.12;47.96
69535;BME280;56754;51.568;5.048;2022-07-06T00:25:01;102556.88;;;21.09;47.95
69535;BME280;56754;51.568;5.048;2022-07-06T00:27:27;102555.63;;;21.07;48.22
69535;BME280;56754;51.568;5.048;2022-07-06T00:29:52;102548.94;;;21.04;48.18
69535;BME280;56754;51.568;5.048;2022-07-06T00:32:17;102552.78;;;21.03;48.17
69535;BME280;56754;51.568;5.048;2022-07-06T00:34:42;102552.66;;;21.00;48.27
69535;BME280;56754;51.568;5.048;2022-07-06T00:37:08;102555.72;;;20.98;48.29
69535;BME280;56754;51.568;5.048;2022-07-06T00:39:33;102549.81;;;20.96;48.33
69535;BME280;56754;51.568;5.048;2022-07-06T00:41:59;102554.81;;;20.94;48.38
69535;BME280;56754;51.568;5.048;2022-07-06T00:44:24;102550.50;;;20.93;48.34
69535;BME280;56754;51.568;5.048;2022-07-06T00:46:49;102554.38;;;20.92;48.43
69535;BME280;56754;51.568;5.048;2022-07-06T00:49:15;102556.63;;;20.90;48.34
69535;BME280;56754;51.568;5.048;2022-07-06T00:51:40;102561.59;;;20.88;48.56
69535;BME280;56754;51.568;5.048;2022-07-06T00:54:05;102553.78;;;20.86;48.54
69535;BME280;56754;51.568;5.048;2022-07-06T00:56:31;102559.53;;;20.85;48.56
69535;BME280;56754;51.568;5.048;2022-07-06T00:58:58;102557.97;;;20.84;48.54
69535;BME280;56754;51.568;5.048;2022-07-06T01:01:24;102552.88;;;20.82;48.51
69535;BME280;56754;51.568;5.048;2022-07-06T01:03:50;102562.50;;;20.80;48.56
69535;BME280;56754;51.568;5.048;2022-07-06T01:06:16;102557.38;;;20.78;48.46
69535;BME280;56754;51.568;5.048;2022-07-06T01:08:42;102555.81;;;20.77;48.48
69535;BME280;56754;51.568;5.048;2022-07-06T01:11:07;102560.00;;;20.75;48.51
69535;BME280;56754;51.568;5.048;2022-07-06T01:13:33;102556.47;;;20.74;48.64
69535;BME280;56754;51.568;5.048;2022-07-06T01:15:59;102558.72;;;20.72;48.56
69535;BME280;56754;51.568;5.048;2022-07-06T01:18:24;102555.13;;;20.68;48.81
69535;BME280;56754;51.568;5.048;2022-07-06T01:20:50;102552.72;;;20.66;48.66
69535;BME280;56754;51.568;5.048;2022-07-06T01:23:15;102553.88;;;20.65;48.77
69535;BME280;56754;51.568;5.048;2022-07-06T01:25:40;102553.41;;;20.63;48.94
69535;BME280;56754;51.568;5.048;2022-07-06T01:28:05;102552.94;;;20.61;48.92
69535;BME280;56754;51.568;5.048;2022-07-06T01:30:31;102561.06;;;20.61;48.94
69535;BME280;56754;51.568;5.048;2022-07-06T01:32:56;102556.31;;;20.58;49.02
69535;BME280;56754;51.568;5.048;2022-07-06T01:35:22;102559.38;;;20.57;49.14
69535;BME280;56754;51.568;5.048;2022-07-06T01:37:49;102553.47;;;20.55;49.19
69535;BME280;56754;51.568;5.048;2022-07-06T01:40:14;102559.25;;;20.53;49.34
69535;BME280;56754;51.568;5.048;2022-07-06T01:42:40;102553.34;;;20.51;49.29
69535;BME280;56754;51.568;5.048;2022-07-06T01:45:06;102563.72;;;20.49;49.41
69535;BME280;56754;51.568;5.048;2022-07-06T01:47:31;102558.28;;;20.49;49.32
69535;BME280;56754;51.568;5.048;2022-07-06T01:50:01;102554.31;;;20.46;49.35
69535;BME280;56754;51.568;5.048;2022-07-06T01:52:27;102553.53;;;20.46;49.41
69535;BME280;56754;51.568;5.048;2022-07-06T01:54:52;102551.97;;;20.45;49.36
69535;BME280;56754;51.568;5.048;2022-07-06T01:57:17;102554.22;;;20.43;49.47
69535;BME280;56754;51.568;5.048;2022-07-06T01:59:43;102558.84;;;20.42;49.40
69535;BME280;56754;51.568;5.048;2022-07-06T02:02:08;102541.28;;;20.40;49.49
69535;BME280;56754;51.568;5.048;2022-07-06T02:04:33;102548.66;;;20.39;49.41
69535;BME280;56754;51.568;5.048;2022-07-06T02:06:59;102538.47;;;20.36;49.33
69535;BME280;56754;51.568;5.048;2022-07-06T02:09:24;102552.34;;;20.35;49.65
69535;BME280;56754;51.568;5.048;2022-07-06T02:11:49;102554.28;;;20.34;49.63
69535;BME280;56754;51.568;5.048;2022-07-06T02:14:14;102560.06;;;20.33;49.46
69535;BME280;56754;51.568;5.048;2022-07-06T02:16:40;102561.19;;;20.32;49.60
69535;BME280;56754;51.568;5.048;2022-07-06T02:19:05;102568.53;;;20.31;49.59
69535;BME280;56754;51.568;5.048;2022-07-06T02:21:30;102563.44;;;20.30;49.61
69535;BME280;56754;51.568;5.048;2022-07-06T02:23:56;102561.06;;;20.28;49.70
69535;BME280;56754;51.568;5.048;2022-07-06T02:26:21;102550.53;;;20.27;49.56
69535;BME280;56754;51.568;5.048;2022-07-06T02:28:46;102560.94;;;20.25;49.61
69535;BME280;56754;51.568;5.048;2022-07-06T02:31:12;102544.16;;;20.22;49.62
69535;BME280;56754;51.568;5.048;2022-07-06T02:33:37;102551.88;;;20.20;49.58
69535;BME280;56754;51.568;5.048;2022-07-06T02:36:02;102548.69;;;20.18;49.60
69535;BME280;56754;51.568;5.048;2022-07-06T02:38:27;102542.78;;;20.16;49.67
69535;BME280;56754;51.568;5.048;2022-07-06T02:40:53;102548.56;;;20.15;49.96
69535;BME280;56754;51.568;5.048;2022-07-06T02:43:18;102544.25;;;20.14;49.66
69535;BME280;56754;51.568;5.048;2022-07-06T02:45:43;102547.31;;;20.12;49.68
69535;BME280;56754;51.568;5.048;2022-07-06T02:48:08;102550.34;;;20.11;49.98
69535;BME280;56754;51.568;5.048;2022-07-06T02:50:34;102554.19;;;20.10;49.67
69535;BME280;56754;51.568;5.048;2022-07-06T02:52:59;102551.78;;;20.08;50.03
69535;BME280;56754;51.568;5.048;2022-07-06T02:55:24;102561.06;;;20.07;49.86
69535;BME280;56754;51.568;5.048;2022-07-06T02:57:50;102566.84;;;20.06;49.96
69535;BME280;56754;51.568;5.048;2022-07-06T03:00:15;102568.31;;;20.03;49.93
69535;BME280;56754;51.568;5.048;2022-07-06T03:02:41;102559.69;;;20.01;49.97
69535;BME280;56754;51.568;5.048;2022-07-06T03:05:06;102558.91;;;20.00;50.16
69535;BME280;56754;51.568;5.048;2022-07-06T03:07:31;102563.53;;;20.00;49.99
69535;BME280;56754;51.568;5.048;2022-07-06T03:09:57;102548.34;;;19.99;49.93
69535;BME280;56754;51.568;5.048;2022-07-06T03:12:22;102556.84;;;19.97;50.06
69535;BME280;56754;51.568;5.048;2022-07-06T03:14:47;102556.06;;;19.97;50.16
69535;BME280;56754;51.568;5.048;2022-07-06T03:17:13;102559.09;;;19.95;50.33
69535;BME280;56754;51.568;5.048;2022-07-06T03:19:38;102560.22;;;19.94;50.10
69535;BME280;56754;51.568;5.048;2022-07-06T03:22:03;102558.63;;;19.93;50.15
69535;BME280;56754;51.568;5.048;2022-07-06T03:24:29;102564.03;;;19.93;50.21
69535;BME280;56754;51.568;5.048;2022-07-06T03:26:54;102575.25;;;19.92;50.26
69535;BME280;56754;51.568;5.048;2022-07-06T03:29:19;102558.97;;;19.92;50.22
69535;BME280;56754;51.568;5.048;2022-07-06T03:31:44;102566.63;;;19.90;50.20
69535;BME280;56754;51.568;5.048;2022-07-06T03:34:10;102558.84;;;19.88;50.32
69535;BME280;56754;51.568;5.048;2022-07-06T03:36:35;102555.34;;;19.88;50.33
69535;BME280;56754;51.568;5.048;2022-07-06T03:39:00;102557.22;;;19.87;50.20
69535;BME280;56754;51.568;5.048;2022-07-06T03:41:26;102564.56;;;19.87;50.31
69535;BME280;56754;51.568;5.048;2022-07-06T03:43:51;102556.00;;;19.85;50.43
69535;BME280;56754;51.568;5.048;2022-07-06T03:46:16;102562.53;;;19.84;50.24
69535;BME280;56754;51.568;5.048;2022-07-06T03:48:42;102559.81;;;19.84;50.40
69535;BME280;56754;51.568;5.048;2022-07-06T03:51:07;102563.66;;;19.83;50.23
69535;BME280;56754;51.568;5.048;2022-07-06T03:53:32;102560.16;;;19.82;50.43
69535;BME280;56754;51.568;5.048;2022-07-06T03:55:58;102562.06;;;19.82;50.35
69535;BME280;56754;51.568;5.048;2022-07-06T03:58:23;102556.63;;;19.82;50.37
69535;BME280;56754;51.568;5.048;2022-07-06T04:00:48;102553.13;;;19.81;50.38
69535;BME280;56754;51.568;5.048;2022-07-06T04:03:13;102555.84;;;19.81;50.33
69535;BME280;56754;51.568;5.048;2022-07-06T04:05:39;102550.41;;;19.81;50.25
69535;BME280;56754;51.568;5.048;2022-07-06T04:08:04;102548.50;;;19.82;50.22
69535;BME280;56754;51.568;5.048;2022-07-06T04:10:29;102544.97;;;19.81;50.23
69535;BME280;56754;51.568;5.048;2022-07-06T04:12:54;102544.97;;;19.81;50.28
69535;BME280;56754;51.568;5.048;2022-07-06T04:15:20;102538.78;;;19.81;50.08
69535;BME280;56754;51.568;5.048;2022-07-06T04:17:45;102535.25;;;19.80;50.44
69535;BME280;56754;51.568;5.048;2022-07-06T04:20:10;102534.47;;;19.80;50.46
69535;BME280;56754;51.568;5.048;2022-07-06T04:22:38;102542.63;;;19.80;50.34
69535;BME280;56754;51.568;5.048;2022-07-06T04:25:04;102538.78;;;19.81;50.52
69535;BME280;56754;51.568;5.048;2022-07-06T04:27:30;102543.06;;;19.82;50.31
69535;BME280;56754;51.568;5.048;2022-07-06T04:29:55;102544.66;;;19.83;50.18
69535;BME280;56754;51.568;5.048;2022-07-06T04:32:20;102540.03;;;19.83;50.31
69535;BME280;56754;51.568;5.048;2022-07-06T04:34:46;102543.22;;;19.85;50.12
69535;BME280;56754;51.568;5.048;2022-07-06T04:37:11;102541.28;;;19.86;50.22
69535;BME280;56754;51.568;5.048;2022-07-06T04:39:36;102544.47;;;19.88;50.26
69535;BME280;56754;51.568;5.048;2022-07-06T04:42:02;102540.63;;;19.89;50.11
69535;BME280;56754;51.568;5.048;2022-07-06T04:44:27;102543.81;;;19.91;49.97
69535;BME280;56754;51.568;5.048;2022-07-06T04:46:52;102537.25;;;19.92;50.14
69535;BME280;56754;51.568;5.048;2022-07-06T04:49:17;102541.22;;;19.94;50.07
69535;BME280;56754;51.568;5.048;2022-07-06T04:51:43;102541.22;;;19.94;50.09
69535;BME280;56754;51.568;5.048;2022-07-06T04:54:08;102547.91;;;19.97;49.97
69535;BME280;56754;51.568;5.048;2022-07-06T04:56:33;102549.50;;;19.98;50.03
69535;BME280;56754;51.568;5.048;2022-07-06T04:58:58;102552.69;;;20.00;50.07
69535;BME280;56754;51.568;5.048;2022-07-06T05:01:24;102549.31;;;20.03;50.08
69535;BME280;56754;51.568;5.048;2022-07-06T05:03:49;102554.06;;;20.06;49.90
69535;BME280;56754;51.568;5.048;2022-07-06T05:06:14;102550.22;;;20.07;49.86
69535;BME280;56754;51.568;5.048;2022-07-06T05:08:39;102551.47;;;20.10;49.74
69535;BME280;56754;51.568;5.048;2022-07-06T05:11:05;102554.31;;;20.13;49.66
69535;BME280;56754;51.568;5.048;2022-07-06T05:13:30;102567.22;;;20.16;49.77
69535;BME280;56754;51.568;5.048;2022-07-06T05:15:55;102554.91;;;20.19;49.64
69535;BME280;56754;51.568;5.048;2022-07-06T05:18:20;102566.38;;;20.25;49.70
69535;BME280;56754;51.568;5.048;2022-07-06T05:20:46;102556.41;;;20.29;49.69
69535;BME280;56754;51.568;5.048;2022-07-06T05:23:13;102560.84;;;20.33;49.68
69535;BME280;56754;51.568;5.048;2022-07-06T05:25:38;102558.72;;;20.39;49.70
69535;BME280;56754;51.568;5.048;2022-07-06T05:28:03;102565.06;;;20.43;49.70
69535;BME280;56754;51.568;5.048;2022-07-06T05:30:29;102566.78;;;20.48;49.61
69535;BME280;56754;51.568;5.048;2022-07-06T05:32:54;102566.13;;;20.51;49.71
69535;BME280;56754;51.568;5.048;2022-07-06T05:35:19;102573.28;;;20.55;49.65
69535;BME280;56754;51.568;5.048;2022-07-06T05:37:45;102569.91;;;20.58;49.74
69535;BME280;56754;51.568;5.048;2022-07-06T05:40:11;102566.50;;;20.61;49.64
69535;BME280;56754;51.568;5.048;2022-07-06T05:42:36;102564.25;;;20.63;49.60
69535;BME280;56754;51.568;5.048;2022-07-06T05:45:01;102571.75;;;20.66;49.78
69535;BME280;56754;51.568;5.048;2022-07-06T05:47:27;102574.56;;;20.70;49.86
69535;BME280;56754;51.568;5.048;2022-07-06T05:49:52;102568.47;;;20.73;49.83
69535;BME280;56754;51.568;5.048;2022-07-06T05:52:17;102579.47;;;20.77;49.71
69535;BME280;56754;51.568;5.048;2022-07-06T05:54:42;102564.41;;;20.79;49.69
69535;BME280;56754;51.568;5.048;2022-07-06T05:57:08;102572.69;;;20.83;49.99
69535;BME280;56754;51.568;5.048;2022-07-06T05:59:33;102571.22;;;20.85;49.78
69535;BME280;56754;51.568;5.048;2022-07-06T06:01:58;102571.34;;;20.89;49.58
69535;BME280;56754;51.568;5.048;2022-07-06T06:04:23;102573.72;;;20.90;49.70
69535;BME280;56754;51.568;5.048;2022-07-06T06:06:48;102574.50;;;20.91;49.62
69535;BME280;56754;51.568;5.048;2022-07-06T06:09:14;102576.09;;;20.92;49.60
69535;BME280;56754;51.568;5.048;2022-07-06T06:11:39;102584.72;;;20.94;49.47
69535;BME280;56754;51.568;5.048;2022-07-06T06:14:04;102575.44;;;20.95;49.45
69535;BME280;56754;51.568;5.048;2022-07-06T06:16:30;102574.28;;;20.96;49.33
69535;BME280;56754;51.568;5.048;2022-07-06T06:18:55;102569.31;;;20.98;49.29
69535;BME280;56754;51.568;5.048;2022-07-06T06:21:20;102569.78;;;21.00;49.27
69535;BME280;56754;51.568;5.048;2022-07-06T06:23:45;102577.25;;;21.03;49.36
69535;BME280;56754;51.568;5.048;2022-07-06T06:26:11;102578.84;;;21.04;49.24
69535;BME280;56754;51.568;5.048;2022-07-06T06:28:36;102576.59;;;21.06;49.18
69535;BME280;56754;51.568;5.048;2022-07-06T06:31:01;102578.94;;;21.08;49.21
69535;BME280;56754;51.568;5.048;2022-07-06T06:33:26;102575.13;;;21.09;49.11
69535;BME280;56754;51.568;5.048;2022-07-06T06:35:52;102582.91;;;21.10;48.97
69535;BME280;56754;51.568;5.048;2022-07-06T06:38:19;102577.47;;;21.10;48.74
69535;BME280;56754;51.568;5.048;2022-07-06T06:40:45;102588.34;;;21.10;48.68
69535;BME280;56754;51.568;5.048;2022-07-06T06:43:10;102589.94;;;21.11;48.86
69535;BME280;56754;51.568;5.048;2022-07-06T06:45:36;102585.31;;;21.12;48.69
69535;BME280;56754;51.568;5.048;2022-07-06T06:48:01;102585.44;;;21.16;48.46
69535;BME280;56754;51.568;5.048;2022-07-06T06:50:27;102588.56;;;21.18;48.67
69535;BME280;56754;51.568;5.048;2022-07-06T06:52:52;102587.47;;;21.19;48.71
69535;BME280;56754;51.568;5.048;2022-07-06T06:55:17;102583.28;;;21.21;48.78
69535;BME280;56754;51.568;5.048;2022-07-06T06:57:44;102588.03;;;21.24;48.57
69535;BME280;56754;51.568;5.048;2022-07-06T07:00:10;102583.03;;;21.26;48.62
69535;BME280;56754;51.568;5.048;2022-07-06T07:02:35;102590.88;;;21.28;48.58
69535;BME280;56754;51.568;5.048;2022-07-06T07:05:00;102590.88;;;21.28;48.61
69535;BME280;56754;51.568;5.048;2022-07-06T07:07:26;102587.47;;;21.31;48.66
69535;BME280;56754;51.568;5.048;2022-07-06T07:09:51;102581.66;;;21.32;48.60
69535;BME280;56754;51.568;5.048;2022-07-06T07:12:16;102593.38;;;21.33;48.59
69535;BME280;56754;51.568;5.048;2022-07-06T07:14:42;102582.91;;;21.35;47.99
69535;BME280;56754;51.568;5.048;2022-07-06T07:17:07;102586.47;;;21.35;48.38
69535;BME280;56754;51.568;5.048;2022-07-06T07:19:32;102590.00;;;21.36;48.06
69535;BME280;56754;51.568;5.048;2022-07-06T07:21:57;102595.44;;;21.36;47.96
69535;BME280;56754;51.568;5.048;2022-07-06T07:24:23;102588.84;;;21.37;47.62
69535;BME280;56754;51.568;5.048;2022-07-06T07:26:48;102593.16;;;21.38;47.52
69535;BME280;56754;51.568;5.048;2022-07-06T07:29:13;102596.69;;;21.39;47.22
69535;BME280;56754;51.568;5.048;2022-07-06T07:31:39;102593.16;;;21.38;47.48
69535;BME280;56754;51.568;5.048;2022-07-06T07:34:04;102593.97;;;21.39;47.40
69535;BME280;56754;51.568;5.048;2022-07-06T07:36:29;102598.59;;;21.38;47.39
69535;BME280;56754;51.568;5.048;2022-07-06T07:38:54;102591.56;;;21.37;46.58
69535;BME280;56754;51.568;5.048;2022-07-06T07:41:20;102593.16;;;21.38;46.49
69535;BME280;56754;51.568;5.048;2022-07-06T07:43:45;102588.53;;;21.39;46.41
69535;BME280;56754;51.568;5.048;2022-07-06T07:46:10;102597.00;;;21.37;46.22
69535;BME280;56754;51.568;5.048;2022-07-06T07:48:36;102595.09;;;21.38;46.10
69535;BME280;56754;51.568;5.048;2022-07-06T07:51:01;102590.91;;;21.40;45.75
69535;BME280;56754;51.568;5.048;2022-07-06T07:53:26;102594.06;;;21.42;45.44
69535;BME280;56754;51.568;5.048;2022-07-06T07:55:52;102596.78;;;21.42;45.13
69535;BME280;56754;51.568;5.048;2022-07-06T07:58:17;102594.06;;;21.42;45.26
69535;BME280;56754;51.568;5.048;2022-07-06T08:00:43;102585.13;;;21.42;45.47
69535;BME280;56754;51.568;5.048;2022-07-06T08:03:08;102583.97;;;21.43;45.40
69535;BME280;56754;51.568;5.048;2022-07-06T08:05:33;102585.22;;;21.45;45.30
69535;BME280;56754;51.568;5.048;2022-07-06T08:07:58;102583.31;;;21.46;45.16
69535;BME280;56754;51.568;5.048;2022-07-06T08:10:24;102579.44;;;21.47;44.15
69535;BME280;56754;51.568;5.048;2022-07-06T08:12:49;102586.47;;;21.48;44.15
69535;BME280;56754;51.568;5.048;2022-07-06T08:15:14;102584.56;;;21.48;44.19
69535;BME280;56754;51.568;5.048;2022-07-06T08:17:40;102577.97;;;21.49;43.95
69535;BME280;56754;51.568;5.048;2022-07-06T08:20:08;102580.78;;;21.53;44.13
69535;BME280;56754;51.568;5.048;2022-07-06T08:22:37;102580.47;;;21.54;43.77
69535;BME280;56754;51.568;5.048;2022-07-06T08:25:04;102578.19;;;21.56;44.17
69535;BME280;56754;51.568;5.048;2022-07-06T08:27:29;102580.56;;;21.58;43.47
69535;BME280;56754;51.568;5.048;2022-07-06T08:29:54;102582.97;;;21.60;43.61
69535;BME280;56754;51.568;5.048;2022-07-06T08:32:20;102577.63;;;21.63;43.67
69535;BME280;56754;51.568;5.048;2022-07-06T08:34:46;102577.25;;;21.65;43.86
69535;BME280;56754;51.568;5.048;2022-07-06T08:37:11;102577.94;;;21.62;43.38
69535;BME280;56754;51.568;5.048;2022-07-06T08:39:37;102572.50;;;21.62;43.33
69535;BME280;56754;51.568;5.048;2022-07-06T08:42:02;102571.38;;;21.63;42.99
69535;BME280;56754;51.568;5.048;2022-07-06T08:44:29;102570.25;;;21.64;43.58
69535;BME280;56754;51.568;5.048;2022-07-06T08:46:54;102568.78;;;21.66;43.46
69535;BME280;56754;51.568;5.048;2022-07-06T08:49:22;102562.97;;;21.68;43.40
69535;BME280;56754;51.568;5.048;2022-07-06T08:51:48;102562.28;;;21.71;43.28
69535;BME280;56754;51.568;5.048;2022-07-06T08:54:14;102565.00;;;21.71;43.57
69535;BME280;56754;51.568;5.048;2022-07-06T08:56:40;102561.94;;;21.72;43.78
69535;BME280;56754;51.568;5.048;2022-07-06T08:59:05;102560.81;;;21.73;43.97
69535;BME280;56754;51.568;5.048;2022-07-06T09:01:32;102553.88;;;21.76;43.92
69535;BME280;56754;51.568;5.048;2022-07-06T09:03:57;102548.53;;;21.79;43.90
69535;BME280;56754;51.568;5.048;2022-07-06T09:06:25;102557.94;;;21.82;43.93
69535;BME280;56754;51.568;5.048;2022-07-06T09:08:53;102558.88;;;21.86;44.05
69535;BME280;56754;51.568;5.048;2022-07-06T09:11:20;102557.50;;;21.92;43.96
69535;BME280;56754;51.568;5.048;2022-07-06T09:13:46;102552.94;;;21.96;43.81
69535;BME280;56754;51.568;5.048;2022-07-06T09:16:13;102559.25;;;22.00;43.55
69535;BME280;56754;51.568;5.048;2022-07-06T09:18:39;102557.00;;;22.02;43.22
69535;BME280;56754;51.568;5.048;2022-07-06T09:21:06;102563.69;;;22.05;43.15
69535;BME280;56754;51.568;5.048;2022-07-06T09:23:32;102559.47;;;22.08;42.89
69535;BME280;56754;51.568;5.048;2022-07-06T09:25:57;102561.16;;;22.12;42.91
69535;BME280;56754;51.568;5.048;2022-07-06T09:28:23;102560.94;;;22.17;42.59
69535;BME280;56754;51.568;5.048;2022-07-06T09:30:48;102560.69;;;22.22;42.13
69535;BME280;56754;51.568;5.048;2022-07-06T09:33:17;102571.69;;;22.26;42.34
69535;BME280;56754;51.568;5.048;2022-07-06T09:35:43;102568.25;;;22.29;42.30
69535;BME280;56754;51.568;5.048;2022-07-06T09:40:39;102569.25;;;22.37;42.67
69535;BME280;56754;51.568;5.048;2022-07-06T09:43:14;102570.50;;;22.39;42.44
69535;BME280;56754;51.568;5.048;2022-07-06T09:45:42;102574.81;;;22.40;42.26
69535;BME280;56754;51.568;5.048;2022-07-06T09:48:13;102573.66;;;22.41;42.22
69535;BME280;56754;51.568;5.048;2022-07-06T09:50:45;102572.16;;;22.44;42.06
69535;BME280;56754;51.568;5.048;2022-07-06T09:53:12;102576.38;;;22.41;42.01
69535;BME280;56754;51.568;5.048;2022-07-06T09:55:38;102576.03;;;22.43;41.91
69535;BME280;56754;51.568;5.048;2022-07-06T09:58:04;102574.09;;;22.43;41.71
69535;BME280;56754;51.568;5.048;2022-07-06T10:00:30;102576.84;;;22.43;41.62
69535;BME280;56754;51.568;5.048;2022-07-06T10:02:55;102581.59;;;22.46;41.69
69535;BME280;56754;51.568;5.048;2022-07-06T10:05:22;102580.44;;;22.47;41.42
69535;BME280;56754;51.568;5.048;2022-07-06T10:07:49;102571.13;;;22.48;41.50
69535;BME280;56754;51.568;5.048;2022-07-06T10:10:15;102575.44;;;22.49;41.40
69535;BME280;56754;51.568;5.048;2022-07-06T10:12:42;102572.38;;;22.51;41.39
69535;BME280;56754;51.568;5.048;2022-07-06T10:15:09;102582.13;;;22.52;41.36
69535;BME280;56754;51.568;5.048;2022-07-06T10:17:35;102587.59;;;22.52;40.55
69535;BME280;56754;51.568;5.048;2022-07-06T10:20:01;102590.75;;;22.54;40.98
69535;BME280;56754;51.568;5.048;2022-07-06T10:22:27;102584.16;;;22.55;41.21
69535;BME280;56754;51.568;5.048;2022-07-06T10:24:52;102582.22;;;22.56;41.21
69535;BME280;56754;51.568;5.048;2022-07-06T10:27:18;102577.22;;;22.58;40.84
69535;BME280;56754;51.568;5.048;2022-07-06T10:29:44;102578.47;;;22.60;41.15
69535;BME280;56754;51.568;5.048;2022-07-06T10:32:09;102583.53;;;22.62;40.82
69535;BME280;56754;51.568;5.048;2022-07-06T10:34:35;102576.59;;;22.64;40.93
69535;BME280;56754;51.568;5.048;2022-07-06T10:37:01;102582.84;;;22.65;40.81
69535;BME280;56754;51.568;5.048;2022-07-06T10:39:34;102582.06;;;22.64;40.93
69535;BME280;56754;51.568;5.048;2022-07-06T10:42:00;102575.91;;;22.67;41.06
69535;BME280;56754;51.568;5.048;2022-07-06T10:44:26;102577.94;;;22.70;40.98
69535;BME280;56754;51.568;5.048;2022-07-06T10:46:57;102563.84;;;22.68;40.77
69535;BME280;56754;51.568;5.048;2022-07-06T10:49:24;102579.00;;;22.66;40.89
69535;BME280;56754;51.568;5.048;2022-07-06T10:51:50;102568.09;;;22.66;40.78
69535;BME280;56754;51.568;5.048;2022-07-06T10:54:18;102569.22;;;22.65;40.53
69535;BME280;56754;51.568;5.048;2022-07-06T10:56:48;102559.91;;;22.66;40.38
69535;BME280;56754;51.568;5.048;2022-07-06T10:59:20;102569.66;;;22.67;40.69
69535;BME280;56754;51.568;5.048;2022-07-06T11:04:39;102561.03;;;22.65;40.90
69535;BME280;56754;51.568;5.048;2022-07-06T11:07:09;102565.78;;;22.68;40.83
69535;BME280;56754;51.568;5.048;2022-07-06T11:09:35;102563.44;;;22.66;41.39
69535;BME280;56754;51.568;5.048;2022-07-06T11:12:12;102565.72;;;22.64;41.10
69535;BME280;56754;51.568;5.048;2022-07-06T11:14:39;102558.78;;;22.67;41.42
69535;BME280;56754;51.568;5.048;2022-07-06T11:17:04;102559.56;;;22.67;41.09
69535;BME280;56754;51.568;5.048;2022-07-06T11:19:34;102554.88;;;22.68;41.45
69535;BME280;56754;51.568;5.048;2022-07-06T11:22:09;102557.19;;;22.66;41.44
69535;BME280;56754;51.568;5.048;2022-07-06T11:24:39;102555.25;;;22.66;41.12
69535;BME280;56754;51.568;5.048;2022-07-06T11:27:05;102540.16;;;22.69;41.48
69535;BME280;56754;51.568;5.048;2022-07-06T11:29:30;102547.88;;;22.67;41.31
69535;BME280;56754;51.568;5.048;2022-07-06T11:32:00;102548.66;;;22.67;41.20
69535;BME280;56754;51.568;5.048;2022-07-06T11:34:28;102545.13;;;22.67;41.08
69535;BME280;56754;51.568;5.048;2022-07-06T11:39:26;102555.25;;;22.66;41.59
69535;BME280;56754;51.568;5.048;2022-07-06T11:41:51;102538.53;;;22.68;41.36
69535;BME280;56754;51.568;5.048;2022-07-06T11:44:17;102534.69;;;22.69;41.43
69535;BME280;56754;51.568;5.048;2022-07-06T11:46:42;102531.59;;;22.70;41.70
69535;BME280;56754;51.568;5.048;2022-07-06T11:49:08;102531.59;;;22.70;41.63
69535;BME280;56754;51.568;5.048;2022-07-06T11:51:36;102514.09;;;22.71;41.28
69535;BME280;56754;51.568;5.048;2022-07-06T11:54:08;102514.53;;;22.74;41.39
69535;BME280;56754;51.568;5.048;2022-07-06T11:56:35;102520.00;;;22.74;40.83
69535;BME280;56754;51.568;5.048;2022-07-06T11:59:00;102523.94;;;22.76;41.34
69535;BME280;56754;51.568;5.048;2022-07-06T12:01:27;102516.16;;;22.75;41.23
69535;BME280;56754;51.568;5.048;2022-07-06T12:03:57;102509.88;;;22.74;41.37
69535;BME280;56754;51.568;5.048;2022-07-06T12:06:24;102498.19;;;22.74;41.78
69535;BME280;56754;51.568;5.048;2022-07-06T12:08:56;102492.75;;;22.74;41.31
69535;BME280;56754;51.568;5.048;2022-07-06T12:11:26;102504.88;;;22.76;41.34
69535;BME280;56754;51.568;5.048;2022-07-06T12:13:54;102501.81;;;22.78;41.55
69535;BME280;56754;51.568;5.048;2022-07-06T12:16:21;102493.63;;;22.78;41.67
69535;BME280;56754;51.568;5.048;2022-07-06T12:18:47;102492.09;;;22.80;41.30
69535;BME280;56754;51.568;5.048;2022-07-06T12:21:15;102494.84;;;22.80;41.46
69535;BME280;56754;51.568;5.048;2022-07-06T12:23:45;102490.53;;;22.79;41.26
69535;BME280;56754;51.568;5.048;2022-07-06T12:26:12;102493.72;;;22.81;40.94
69535;BME280;56754;51.568;5.048;2022-07-06T12:28:38;102495.72;;;22.84;41.21
69535;BME280;56754;51.568;5.048;2022-07-06T12:31:04;102496.16;;;22.86;40.87
69535;BME280;56754;51.568;5.048;2022-07-06T12:33:29;102488.41;;;22.88;41.15
69535;BME280;56754;51.568;5.048;2022-07-06T12:35:56;102476.38;;;22.89;40.88
69535;BME280;56754;51.568;5.048;2022-07-06T12:38:30;102484.97;;;22.91;41.40
69535;BME280;56754;51.568;5.048;2022-07-06T12:40:55;102483.84;;;22.92;41.20
69535;BME280;56754;51.568;5.048;2022-07-06T12:43:40;102486.69;;;22.96;40.99
69535;BME280;56754;51.568;5.048;2022-07-06T12:46:28;102487.56;;;23.00;40.94
69535;BME280;56754;51.568;5.048;2022-07-06T12:48:54;102495.41;;;23.02;41.12
69535;BME280;56754;51.568;5.048;2022-07-06T12:51:20;102490.81;;;23.06;41.07